Time;durP1;ratioP1;P1;durP2;ratioP2;P2;SDS_P1;SDS_P2;PMS_P1;PMS_P2;Temp;Humidity;BMP_temperature;BMP_pressure;BME280_temperature;BME280_humidity;BME280_pressure;Samples;Min_cycle;Max_cycle;Signal;HPM_P1;HPM_P2
2022/08/09 00:01:35;;;;;;;6.18;3.65;;;15.10;99.90;;;;;;5044173;28;20052;-69
2022/08/09 00:04:01;;;;;;;5.85;3.80;;;15.00;99.90;;;;;;5039458;28;20424;-69
2022/08/09 00:06:26;;;;;;;5.60;3.70;;;15.00;99.90;;;;;;5043430;28;20488;-69
2022/08/09 00:08:53;;;;;;;6.78;3.83;;;15.00;99.90;;;;;;5040735;28;20060;-69
2022/08/09 00:11:20;;;;;;;5.72;3.80;;;15.00;99.90;;;;;;5042273;28;20049;-69
2022/08/09 00:13:46;;;;;;;5.68;3.90;;;15.00;99.90;;;;;;5041929;28;20072;-69
2022/08/09 00:16:11;;;;;;;5.07;3.65;;;14.90;99.90;;;;;;5042718;28;20080;-69
2022/08/09 00:18:37;;;;;;;5.85;3.58;;;14.90;99.90;;;;;;5042018;28;20041;-69
2022/08/09 00:21:07;;;;;;;5.28;3.88;;;14.90;99.90;;;;;;5041627;28;20042;-68
2022/08/09 00:23:33;;;;;;;4.57;3.30;;;15.00;99.90;;;;;;5043489;28;20127;-69
2022/08/09 00:25:59;;;;;;;6.20;4.03;;;14.90;99.90;;;;;;5040543;28;20038;-69
2022/08/09 00:28:25;;;;;;;5.97;4.07;;;14.90;99.90;;;;;;5040109;28;20421;-69
2022/08/09 00:30:51;;;;;;;5.50;4.00;;;14.80;99.90;;;;;;5039582;28;20046;-69
2022/08/09 00:33:17;;;;;;;6.00;3.80;;;14.90;99.90;;;;;;5042054;28;20086;-69
2022/08/09 00:35:42;;;;;;;5.80;4.03;;;14.80;99.90;;;;;;5040401;28;20037;-69
2022/08/09 00:38:11;;;;;;;6.97;4.15;;;14.80;99.90;;;;;;5042442;28;20504;-69
2022/08/09 00:40:40;;;;;;;5.95;3.83;;;14.80;99.90;;;;;;5041284;28;20477;-69
2022/08/09 00:43:06;;;;;;;6.55;4.38;;;14.90;99.90;;;;;;5040832;28;20052;-69
2022/08/09 00:45:32;;;;;;;5.30;3.88;;;14.80;99.90;;;;;;5040594;28;20037;-69
2022/08/09 00:47:58;;;;;;;6.57;3.90;;;14.80;99.90;;;;;;5041015;28;20033;-69
2022/08/09 00:50:24;;;;;;;5.82;3.95;;;14.70;99.90;;;;;;5042566;28;20072;-68
2022/08/09 00:52:51;;;;;;;5.20;4.00;;;14.80;99.90;;;;;;5039269;28;20393;-69
2022/08/09 00:55:17;;;;;;;4.55;3.63;;;14.70;99.90;;;;;;5043178;28;20080;-68
2022/08/09 00:57:43;;;;;;;5.30;3.90;;;14.70;99.90;;;;;;5040285;28;20064;-69
2022/08/09 01:00:09;;;;;;;6.22;4.15;;;14.70;99.90;;;;;;5038137;28;20045;-69
2022/08/09 01:02:38;;;;;;;5.75;3.67;;;14.70;99.90;;;;;;5042550;28;20415;-69
2022/08/09 01:05:15;;;;;;;5.10;3.65;;;14.70;99.90;;;;;;5040055;28;20044;-69
2022/08/09 01:07:53;;;;;;;6.15;3.67;;;14.70;99.90;;;;;;5042938;28;20053;-69
2022/08/09 01:10:43;;;;;;;4.47;3.40;;;14.70;99.90;;;;;;5037592;28;20041;-69
2022/08/09 01:13:29;;;;;;;5.45;3.90;;;14.70;99.90;;;;;;5038684;28;20087;-68
2022/08/09 01:15:56;;;;;;;5.03;3.63;;;14.60;99.90;;;;;;5042361;28;20092;-69
2022/08/09 01:18:28;;;;;;;5.95;4.05;;;14.60;99.90;;;;;;5041454;28;20044;-68
2022/08/09 01:21:02;;;;;;;4.95;3.70;;;14.60;99.90;;;;;;5038647;28;20045;-69
2022/08/09 01:23:56;;;;;;;4.75;3.53;;;14.60;99.90;;;;;;5040690;28;20041;-68
2022/08/09 01:26:34;;;;;;;4.78;3.33;;;14.40;99.90;;;;;;5037491;28;20389;-69
2022/08/09 01:29:02;;;;;;;4.95;3.25;;;14.40;99.90;;;;;;5039191;28;20048;-70
2022/08/09 01:31:30;;;;;;;4.68;3.60;;;14.30;99.90;;;;;;5041962;28;20060;-69
2022/08/09 01:33:58;;;;;;;5.15;3.63;;;14.30;99.90;;;;;;5040182;28;20080;-68
2022/08/09 01:36:26;;;;;;;4.15;3.20;;;14.30;99.90;;;;;;5040488;28;20501;-67
2022/08/09 01:38:53;;;;;;;4.97;3.53;;;14.30;99.90;;;;;;5041644;28;20056;-68
2022/08/09 01:41:27;;;;;;;6.72;3.92;;;14.20;99.90;;;;;;5039815;28;20041;-68
2022/08/09 01:43:56;;;;;;;4.13;3.20;;;14.20;99.90;;;;;;5046050;28;20040;-68
2022/08/09 01:46:35;;;;;;;4.90;3.47;;;14.20;99.90;;;;;;5048434;28;20077;-67
2022/08/09 01:49:08;;;;;;;3.75;2.85;;;14.10;99.90;;;;;;5047534;28;20049;-67
2022/08/09 01:51:36;;;;;;;4.35;2.85;;;14.10;99.90;;;;;;5046819;28;20041;-67
2022/08/09 01:54:04;;;;;;;3.90;2.30;;;14.10;99.90;;;;;;5047459;28;20507;-68
2022/08/09 01:56:32;;;;;;;4.38;2.33;;;14.00;99.90;;;;;;5045201;28;20072;-68
2022/08/09 01:59:00;;;;;;;3.72;2.38;;;13.90;99.90;;;;;;5045867;28;20057;-68
2022/08/09 02:01:27;;;;;;;3.53;2.30;;;13.90;99.90;;;;;;5046472;28;20052;-67
2022/08/09 02:03:55;;;;;;;3.92;2.58;;;13.90;99.90;;;;;;5047192;28;20044;-70
2022/08/09 02:09:11;;;;;;;3.97;2.53;;;13.80;99.90;;;;;;5041248;28;20498;-70
2022/08/09 02:11:37;;;;;;;4.88;2.58;;;13.80;99.90;;;;;;5047692;28;20048;-69
2022/08/09 02:14:06;;;;;;;3.40;2.30;;;13.80;99.90;;;;;;5044025;28;20037;-70
2022/08/09 02:16:36;;;;;;;3.75;2.50;;;13.80;99.90;;;;;;5042524;28;20049;-69
2022/08/09 02:19:02;;;;;;;3.70;2.38;;;13.80;99.90;;;;;;5039547;28;20045;-70
2022/08/09 02:21:32;;;;;;;3.92;2.22;;;13.80;99.90;;;;;;5048306;28;20041;-70
2022/08/09 02:23:59;;;;;;;3.50;2.20;;;13.70;99.90;;;;;;5044965;28;20388;-70
2022/08/09 02:26:28;;;;;;;4.00;2.75;;;13.70;99.90;;;;;;5048002;28;20130;-68
2022/08/09 02:28:58;;;;;;;4.47;2.58;;;13.70;99.90;;;;;;5048252;28;20071;-67
2022/08/09 02:31:29;;;;;;;4.15;2.60;;;13.70;99.90;;;;;;5046161;28;20037;-67
2022/08/09 02:33:59;;;;;;;4.28;2.75;;;13.60;99.90;;;;;;5047498;28;20580;-67
2022/08/09 02:36:41;;;;;;;4.43;2.33;;;13.70;99.90;;;;;;5045345;28;20128;-67
2022/08/09 02:39:12;;;;;;;3.67;2.38;;;13.60;99.90;;;;;;5041624;28;20053;-68
2022/08/09 02:41:43;;;;;;;3.42;2.22;;;13.60;99.90;;;;;;5044539;28;20079;-67
2022/08/09 02:44:14;;;;;;;3.42;1.90;;;13.60;99.90;;;;;;5045718;28;20042;-68
2022/08/09 02:46:42;;;;;;;3.08;1.65;;;13.50;99.90;;;;;;5047574;28;20049;-67
2022/08/09 02:49:11;;;;;;;2.40;1.42;;;13.50;99.90;;;;;;5045207;28;20052;-67
2022/08/09 02:51:40;;;;;;;2.65;1.65;;;13.50;99.90;;;;;;5048199;28;20040;-67
2022/08/09 02:54:09;;;;;;;2.70;1.60;;;13.60;99.90;;;;;;5041664;28;20099;-69
2022/08/09 02:56:36;;;;;;;3.45;1.90;;;13.60;99.90;;;;;;5040616;28;20037;-69
2022/08/09 02:59:04;;;;;;;4.22;1.80;;;13.50;99.90;;;;;;5044399;28;20049;-70
2022/08/09 03:01:31;;;;;;;3.70;1.70;;;13.40;99.90;;;;;;5041849;28;20068;-69
2022/08/09 03:03:59;;;;;;;3.00;1.77;;;13.40;99.90;;;;;;5045676;28;20033;-68
2022/08/09 03:06:26;;;;;;;4.13;1.80;;;13.40;99.90;;;;;;5036717;28;20049;-67
2022/08/09 03:08:52;;;;;;;4.20;2.10;;;13.40;99.90;;;;;;5045257;28;20041;-68
2022/08/09 03:11:21;;;;;;;2.85;1.63;;;13.40;99.90;;;;;;5037401;28;20046;-68
2022/08/09 03:13:47;;;;;;;3.03;1.70;;;13.30;99.90;;;;;;5040400;28;20059;-68
2022/08/09 03:16:17;;;;;;;2.92;1.73;;;13.40;99.90;;;;;;5043204;28;20048;-69
2022/08/09 03:18:46;;;;;;;3.95;1.83;;;13.30;99.90;;;;;;5044350;28;20417;-68
2022/08/09 03:21:15;;;;;;;3.58;2.03;;;13.30;99.90;;;;;;5041123;28;20045;-68
2022/08/09 03:23:45;;;;;;;4.03;2.03;;;13.30;99.90;;;;;;5043149;28;20541;-69
2022/08/09 03:26:13;;;;;;;4.07;1.73;;;13.20;99.90;;;;;;5041191;28;20041;-69
2022/08/09 03:28:40;;;;;;;3.95;1.70;;;13.20;99.90;;;;;;5038461;28;20155;-68
2022/08/09 03:31:07;;;;;;;2.80;1.70;;;13.20;99.90;;;;;;5042419;28;20049;-69
2022/08/09 03:33:34;;;;;;;3.35;1.70;;;13.10;99.90;;;;;;5044332;28;20048;-68
2022/08/09 03:36:01;;;;;;;4.05;1.80;;;13.00;99.90;;;;;;5041876;28;20045;-68
2022/08/09 03:38:27;;;;;;;3.10;1.63;;;13.10;99.90;;;;;;5044586;28;20049;-68
2022/08/09 03:40:52;;;;;;;2.65;1.60;;;13.10;99.90;;;;;;5035853;28;20456;-68
2022/08/09 03:43:18;;;;;;;4.50;1.80;;;13.10;99.90;;;;;;5044710;28;20111;-68
2022/08/09 03:45:43;;;;;;;2.83;1.70;;;13.00;99.90;;;;;;5041905;28;20440;-68
2022/08/09 03:48:09;;;;;;;2.88;1.67;;;13.10;99.90;;;;;;5044299;28;20053;-68
2022/08/09 03:50:36;;;;;;;2.42;1.50;;;13.10;99.90;;;;;;5041975;28;20060;-68
2022/08/09 03:53:03;;;;;;;3.03;1.63;;;13.10;99.90;;;;;;5041979;28;20041;-68
2022/08/09 03:55:29;;;;;;;2.95;1.80;;;13.00;99.90;;;;;;5038742;28;20060;-68
2022/08/09 03:57:56;;;;;;;4.40;1.85;;;13.00;99.90;;;;;;5043497;28;20098;-68
2022/08/09 04:00:22;;;;;;;3.63;1.92;;;13.00;99.90;;;;;;5040065;28;20056;-69
2022/08/09 04:02:48;;;;;;;2.90;1.70;;;13.00;99.90;;;;;;5044315;28;20049;-68
2022/08/09 04:05:14;;;;;;;3.75;1.67;;;13.00;99.90;;;;;;5036825;28;20045;-67
2022/08/09 04:07:40;;;;;;;2.85;1.63;;;13.00;99.90;;;;;;5043030;28;20045;-68
2022/08/09 04:10:06;;;;;;;3.22;1.40;;;13.00;99.90;;;;;;5036969;28;20049;-68
2022/08/09 04:12:45;;;;;;;2.72;1.35;;;13.00;99.90;;;;;;5043153;28;20112;-68
2022/08/09 04:15:11;;;;;;;2.42;1.20;;;13.00;99.90;;;;;;5039956;28;20118;-68
2022/08/09 04:17:38;;;;;;;3.25;1.20;;;13.00;99.90;;;;;;5041861;28;20052;-69
2022/08/09 04:20:05;;;;;;;2.40;1.20;;;13.00;99.90;;;;;;5041621;28;20047;-68
2022/08/09 04:22:30;;;;;;;3.47;1.58;;;13.00;99.90;;;;;;5043329;28;20447;-69
2022/08/09 04:24:56;;;;;;;5.03;1.67;;;12.90;99.90;;;;;;5041192;28;20120;-68
2022/08/09 04:27:21;;;;;;;3.00;1.55;;;12.90;99.90;;;;;;5041540;28;20041;-68
2022/08/09 04:29:47;;;;;;;3.88;1.80;;;12.90;99.90;;;;;;5043860;28;20036;-68
2022/08/09 04:32:12;;;;;;;4.25;1.70;;;12.90;99.90;;;;;;5040063;28;20080;-68
2022/08/09 04:34:38;;;;;;;3.00;1.55;;;12.80;99.90;;;;;;5036644;28;20037;-69
2022/08/09 04:37:04;;;;;;;3.70;1.70;;;12.80;99.90;;;;;;5043269;28;20420;-68
2022/08/09 04:39:29;;;;;;;4.55;1.60;;;12.90;99.90;;;;;;5040601;28;20037;-69
2022/08/09 04:41:55;;;;;;;;;;;12.90;99.90;;;;;;5042570;28;20044;-68
2022/08/09 04:44:20;;;;;;;2.53;1.30;;;12.90;99.90;;;;;;5041256;28;19920;-68
2022/08/09 04:46:46;;;;;;;3.13;1.33;;;12.90;99.90;;;;;;5040418;28;20033;-68
2022/08/09 04:49:12;;;;;;;1.90;1.00;;;12.90;99.90;;;;;;5043367;28;20045;-68
2022/08/09 04:51:37;;;;;;;1.98;1.00;;;12.80;99.90;;;;;;5040123;28;20124;-68
2022/08/09 04:54:03;;;;;;;2.00;0.93;;;12.80;99.90;;;;;;5040831;28;20041;-68
2022/08/09 04:56:29;;;;;;;2.47;1.05;;;12.80;99.90;;;;;;5038875;28;20041;-68
2022/08/09 04:58:55;;;;;;;2.47;1.17;;;12.80;99.90;;;;;;5039896;28;20480;-68
2022/08/09 05:01:20;;;;;;;;;;;12.80;99.90;;;;;;5041175;28;20064;-68
2022/08/09 05:03:47;;;;;;;2.33;1.20;;;12.80;99.90;;;;;;5040419;28;19921;-68
2022/08/09 05:06:14;;;;;;;3.25;1.33;;;12.80;99.90;;;;;;5041572;28;20102;-68
2022/08/09 05:08:39;;;;;;;4.00;1.35;;;12.80;99.90;;;;;;5040723;28;20038;-68
2022/08/09 05:11:06;;;;;;;3.70;1.30;;;12.90;99.90;;;;;;5041572;28;20114;-69
2022/08/09 05:13:32;;;;;;;3.60;1.48;;;13.00;99.90;;;;;;5038046;28;20037;-68
2022/08/09 05:15:57;;;;;;;4.53;1.70;;;12.90;99.90;;;;;;5041248;28;20086;-68
2022/08/09 05:18:28;;;;;;;2.80;1.30;;;13.00;99.90;;;;;;5039178;28;20041;-69
2022/08/09 05:20:57;;;;;;;2.78;1.33;;;13.00;99.90;;;;;;5041560;28;20040;-68
2022/08/09 05:23:23;;;;;;;2.55;1.48;;;13.10;99.90;;;;;;5039483;28;20041;-68
2022/08/09 05:25:50;;;;;;;2.20;1.10;;;13.10;99.90;;;;;;5043085;28;20033;-68
2022/08/09 05:28:16;;;;;;;2.60;1.23;;;13.20;99.90;;;;;;5040763;28;20045;-68
2022/08/09 05:30:42;;;;;;;2.42;1.10;;;13.20;99.90;;;;;;5042023;28;20144;-69
2022/08/09 05:33:08;;;;;;;2.70;1.20;;;13.30;99.90;;;;;;5040017;28;20041;-68
2022/08/09 05:35:34;;;;;;;2.85;1.13;;;13.30;99.90;;;;;;5042538;28;20033;-69
2022/08/09 05:37:59;;;;;;;4.47;1.40;;;13.40;99.90;;;;;;5039373;28;20390;-68
2022/08/09 05:40:27;;;;;;;2.90;1.58;;;13.50;99.90;;;;;;5038880;28;20502;-68
2022/08/09 05:42:56;;;;;;;3.00;1.60;;;13.50;99.90;;;;;;5036462;28;20094;-68
2022/08/09 05:45:22;;;;;;;3.92;2.13;;;13.60;99.90;;;;;;5042427;28;20055;-68
2022/08/09 05:47:48;;;;;;;4.75;2.50;;;13.70;99.90;;;;;;5040467;28;20029;-69
2022/08/09 05:50:13;;;;;;;4.03;2.55;;;13.80;99.90;;;;;;5039596;28;20064;-68
2022/08/09 05:52:41;;;;;;;5.50;3.03;;;13.90;99.90;;;;;;5042144;28;20029;-68
2022/08/09 05:55:07;;;;;;;7.90;3.08;;;13.90;99.90;;;;;;5038419;28;20045;-68
2022/08/09 05:57:36;;;;;;;6.20;3.20;;;14.10;99.90;;;;;;5039891;28;20089;-69
2022/08/09 06:00:04;;;;;;;6.63;2.92;;;14.20;99.90;;;;;;5041008;28;20037;-69
2022/08/09 06:02:30;;;;;;;6.53;3.17;;;14.20;99.90;;;;;;5037634;28;20513;-69
2022/08/09 06:04:56;;;;;;;5.88;3.10;;;14.30;99.90;;;;;;5042781;28;20041;-69
2022/08/09 06:07:21;;;;;;;8.07;3.75;;;14.40;99.90;;;;;;5038412;28;20045;-69
2022/08/09 06:09:47;;;;;;;5.85;3.58;;;14.50;99.90;;;;;;5038314;28;20053;-69
2022/08/09 06:12:13;;;;;;;8.50;3.85;;;14.60;99.90;;;;;;5035007;28;20400;-69
2022/08/09 06:14:38;;;;;;;7.97;3.85;;;14.70;99.90;;;;;;5041180;28;20033;-69
2022/08/09 06:17:04;;;;;;;6.95;3.40;;;14.80;99.90;;;;;;5039254;28;20049;-69
2022/08/09 06:19:29;;;;;;;6.32;3.92;;;14.80;99.90;;;;;;5038727;28;20042;-69
2022/08/09 06:21:55;;;;;;;7.20;4.03;;;15.00;99.90;;;;;;5041053;28;20045;-69
2022/08/09 06:24:21;;;;;;;8.02;3.60;;;15.00;99.90;;;;;;5038530;28;20112;-69
2022/08/09 06:26:46;;;;;;;5.90;3.90;;;15.10;99.90;;;;;;5041504;28;20095;-69
2022/08/09 06:29:12;;;;;;;5.32;3.45;;;15.20;99.90;;;;;;5041953;28;20041;-69
2022/08/09 06:31:38;;;;;;;6.65;3.50;;;15.30;99.90;;;;;;5044298;28;20072;-69
2022/08/09 06:34:04;;;;;;;6.43;3.63;;;15.40;99.90;;;;;;5044594;28;20040;-69
2022/08/09 06:36:30;;;;;;;5.55;3.50;;;15.40;99.90;;;;;;5042520;28;20124;-69
2022/08/09 06:38:56;;;;;;;5.35;3.35;;;15.50;99.90;;;;;;5043562;28;20393;-69
2022/08/09 06:41:22;;;;;;;5.65;3.58;;;15.70;99.90;;;;;;5037896;28;20072;-69
2022/08/09 06:43:47;;;;;;;7.30;4.47;;;15.80;99.90;;;;;;5039082;28;20068;-69
2022/08/09 06:46:15;;;;;;;6.38;3.75;;;15.80;99.90;;;;;;5044734;28;20484;-69
2022/08/09 06:48:41;;;;;;;7.07;3.72;;;15.90;99.90;;;;;;5043428;28;20730;-69
2022/08/09 06:51:08;;;;;;;7.40;3.60;;;16.10;99.90;;;;;;5042924;28;20382;-69
2022/08/09 06:53:34;;;;;;;4.57;2.95;;;16.10;99.90;;;;;;5042988;28;20045;-69
2022/08/09 06:56:01;;;;;;;5.95;3.20;;;16.20;99.90;;;;;;5043963;28;20072;-69
2022/08/09 06:58:28;;;;;;;7.22;3.45;;;16.30;99.90;;;;;;5041484;28;20053;-69
2022/08/09 07:00:54;;;;;;;7.03;3.35;;;16.40;99.90;;;;;;5043753;28;20049;-69
2022/08/09 07:03:20;;;;;;;8.73;4.25;;;16.50;99.90;;;;;;5042713;28;20042;-69
2022/08/09 07:05:46;;;;;;;7.60;4.40;;;16.60;99.90;;;;;;5045209;28;20060;-69
2022/08/09 07:08:11;;;;;;;5.88;3.45;;;16.70;99.90;;;;;;5042139;28;20041;-69
2022/08/09 07:10:37;;;;;;;6.18;3.72;;;16.80;99.90;;;;;;5037864;28;20135;-69
2022/08/09 07:13:03;;;;;;;6.20;3.50;;;16.90;99.90;;;;;;5039793;28;20397;-69
2022/08/09 07:15:28;;;;;;;5.82;3.50;;;16.90;99.90;;;;;;5044150;28;20474;-69
2022/08/09 07:17:54;;;;;;;6.53;3.83;;;17.10;99.90;;;;;;5043995;28;20499;-69
2022/08/09 07:20:20;;;;;;;5.53;3.78;;;17.20;99.90;;;;;;5041883;28;20033;-69
2022/08/09 07:22:45;;;;;;;8.10;3.58;;;17.30;99.90;;;;;;5044555;28;20435;-69
2022/08/09 07:25:11;;;;;;;7.55;3.42;;;17.50;99.90;;;;;;5040423;28;20465;-69
2022/08/09 07:27:38;;;;;;;5.55;3.13;;;17.50;99.90;;;;;;5043410;28;20045;-69
2022/08/09 07:30:04;;;;;;;6.60;3.30;;;17.70;99.90;;;;;;5037589;28;20045;-69
2022/08/09 07:32:30;;;;;;;6.22;2.90;;;17.90;99.90;;;;;;5043272;28;20064;-69
2022/08/09 07:34:56;;;;;;;6.07;2.45;;;18.00;99.90;;;;;;5041001;28;20037;-69
2022/08/09 07:37:22;;;;;;;4.55;2.47;;;18.20;99.90;;;;;;5041949;28;20045;-69
2022/08/09 07:39:47;;;;;;;5.32;2.80;;;18.60;99.90;;;;;;5042387;28;20045;-69
2022/08/09 07:42:13;;;;;;;6.25;3.15;;;19.60;99.90;;;;;;5040968;28;20120;-69
2022/08/09 07:44:39;;;;;;;4.05;2.10;;;20.90;99.90;;;;;;5040075;28;20080;-70
2022/08/09 07:47:05;;;;;;;3.45;2.05;;;22.20;99.90;;;;;;5044051;28;20064;-70
2022/08/09 07:49:30;;;;;;;4.03;2.20;;;23.40;99.90;;;;;;5040259;28;20440;-70
2022/08/09 07:51:56;;;;;;;3.45;1.90;;;24.10;99.90;;;;;;5043292;28;20037;-70
2022/08/09 07:54:22;;;;;;;3.00;1.52;;;24.20;99.90;;;;;;5043550;28;20040;-70
2022/08/09 07:56:47;;;;;;;3.80;1.55;;;24.80;99.90;;;;;;5040397;28;20041;-70
2022/08/09 07:59:13;;;;;;;4.20;1.70;;;25.80;99.90;;;;;;5042145;28;20080;-70
2022/08/09 08:01:39;;;;;;;4.72;1.60;;;26.40;99.90;;;;;;5039850;28;20041;-70
2022/08/09 08:04:04;;;;;;;3.15;1.33;;;27.30;99.90;;;;;;5044600;28;20374;-70
2022/08/09 08:06:30;;;;;;;3.53;1.50;;;27.30;97.30;;;;;;5042013;28;20042;-70
2022/08/09 08:08:56;;;;;;;4.40;1.52;;;27.60;98.60;;;;;;5042625;28;20568;-70
2022/08/09 08:11:22;;;;;;;2.70;1.10;;;28.30;97.80;;;;;;5041575;28;20056;-68
2022/08/09 08:13:48;;;;;;;3.72;1.30;;;28.80;96.00;;;;;;5039462;28;20382;-70
2022/08/09 08:16:14;;;;;;;4.82;1.50;;;29.20;95.30;;;;;;5040079;28;20053;-70
2022/08/09 08:18:39;;;;;;;3.08;1.38;;;29.60;94.50;;;;;;5044004;28;20060;-70
2022/08/09 08:21:05;;;;;;;4.65;1.35;;;30.00;93.70;;;;;;5040870;28;20056;-69
2022/08/09 08:23:31;;;;;;;3.15;1.30;;;30.10;93.10;;;;;;5044163;28;20425;-68
2022/08/09 08:25:56;;;;;;;2.50;1.10;;;30.10;93.50;;;;;;5039822;28;20436;-68
2022/08/09 08:28:22;;;;;;;3.15;1.42;;;29.90;93.40;;;;;;5043459;28;20239;-69
2022/08/09 08:30:48;;;;;;;2.70;1.13;;;29.90;93.60;;;;;;5040962;28;20484;-68
2022/08/09 08:33:14;;;;;;;3.30;1.02;;;29.10;92.50;;;;;;5040591;28;20477;-69
2022/08/09 08:35:40;;;;;;;2.42;0.98;;;28.50;93.50;;;;;;5043035;28;20580;-69
2022/08/09 08:38:06;;;;;;;3.08;0.95;;;28.90;93.80;;;;;;5040295;28;20124;-69
2022/08/09 08:40:32;;;;;;;3.13;1.20;;;29.60;93.10;;;;;;5044155;28;20032;-69
2022/08/09 08:42:59;;;;;;;2.40;1.00;;;29.30;91.80;;;;;;5036505;28;20038;-69
2022/08/09 08:45:42;;;;;;;2.97;1.10;;;28.80;92.80;;;;;;5041644;28;20037;-69
2022/08/09 08:48:08;;;;;;;2.22;0.88;;;28.80;92.10;;;;;;5037374;28;20494;-69
2022/08/09 08:50:34;;;;;;;2.33;1.00;;;29.50;92.10;;;;;;5041908;28;20112;-68
2022/08/09 08:53:01;;;;;;;3.20;1.02;;;29.80;92.10;;;;;;5037481;28;20141;-69
2022/08/09 08:55:27;;;;;;;2.88;1.20;;;30.00;91.50;;;;;;5042522;28;20477;-69
2022/08/09 08:57:54;;;;;;;2.55;1.10;;;29.60;91.70;;;;;;5039325;28;20049;-69
2022/08/09 09:00:20;;;;;;;2.33;1.10;;;28.80;92.00;;;;;;5038909;28;20040;-69
2022/08/09 09:02:47;;;;;;;2.67;0.95;;;27.90;92.30;;;;;;5041231;28;20030;-69
2022/08/09 09:05:18;;;;;;;1.85;1.00;;;27.20;93.30;;;;;;5039513;28;20451;-69
2022/08/09 09:07:49;;;;;;;2.42;1.25;;;26.50;94.00;;;;;;5041103;28;20069;-69
2022/08/09 09:10:16;;;;;;;2.45;1.10;;;26.10;94.40;;;;;;5041116;28;20048;-69
2022/08/09 09:12:44;;;;;;;1.70;1.10;;;25.80;94.40;;;;;;5040165;28;20068;-69
2022/08/09 09:15:10;;;;;;;2.60;1.02;;;25.40;94.70;;;;;;5040847;28;20103;-69
2022/08/09 09:17:36;;;;;;;1.40;0.75;;;25.10;94.90;;;;;;5039950;28;20379;-69
2022/08/09 09:20:06;;;;;;;3.03;1.27;;;24.90;95.20;;;;;;5041911;28;20124;-69
2022/08/09 09:22:53;;;;;;;2.67;1.08;;;24.90;95.40;;;;;;5039579;28;20045;-70
2022/08/09 09:25:42;;;;;;;2.17;1.00;;;25.70;95.80;;;;;;5038766;28;20045;-70
2022/08/09 09:28:10;;;;;;;1.83;0.88;;;27.00;94.20;;;;;;5038149;28;20041;-70
2022/08/09 09:30:54;;;;;;;1.98;0.90;;;28.10;94.10;;;;;;5037804;28;20045;-70
2022/08/09 09:33:29;;;;;;;1.73;0.80;;;29.30;92.30;;;;;;5035647;28;20104;-70
2022/08/09 09:36:00;;;;;;;2.73;1.00;;;29.80;92.40;;;;;;5036807;28;20048;-71
2022/08/09 09:38:42;;;;;;;2.42;0.90;;;30.00;92.00;;;;;;5041395;28;20052;-71
2022/08/09 09:41:08;;;;;;;2.45;1.02;;;31.00;90.60;;;;;;5039536;28;20149;-71
2022/08/09 09:43:33;;;;;;;2.35;0.95;;;31.00;90.20;;;;;;5041476;28;20036;-70
2022/08/09 09:46:02;;;;;;;2.00;0.88;;;30.60;90.40;;;;;;5032197;28;20052;-71
2022/08/09 09:48:28;;;;;;;1.90;0.85;;;30.10;90.60;;;;;;5039056;28;20080;-70
2022/08/09 09:50:54;;;;;;;1.92;0.95;;;29.60;90.90;;;;;;5039844;28;20052;-71
2022/08/09 09:53:23;;;;;;;1.73;0.80;;;29.50;90.80;;;;;;5041791;28;20044;-70
2022/08/09 09:56:06;;;;;;;3.35;1.10;;;29.00;90.70;;;;;;5038997;28;20477;-70
2022/08/09 09:58:47;;;;;;;3.83;1.02;;;29.30;91.10;;;;;;5039589;28;20128;-70
2022/08/09 10:01:31;;;;;;;2.30;0.80;;;29.10;90.80;;;;;;5037079;28;20087;-70
2022/08/09 10:03:57;;;;;;;3.70;1.10;;;28.90;90.70;;;;;;5040369;28;20516;-70
2022/08/09 10:06:23;;;;;;;2.25;0.90;;;28.50;91.20;;;;;;5046576;28;20037;-70
2022/08/09 10:08:49;;;;;;;2.03;0.73;;;28.10;91.90;;;;;;5041585;28;20496;-70
2022/08/09 10:11:30;;;;;;;2.10;0.95;;;27.70;91.60;;;;;;5047198;28;20033;-71
2022/08/09 10:13:56;;;;;;;4.32;1.15;;;27.30;92.40;;;;;;5041448;28;20092;-70
2022/08/09 10:16:35;;;;;;;2.35;1.00;;;27.00;92.50;;;;;;5043729;28;20435;-72
2022/08/09 10:19:04;;;;;;;2.15;1.00;;;26.70;92.60;;;;;;5044128;28;20393;-70
2022/08/09 10:21:30;;;;;;;2.50;1.10;;;26.40;92.60;;;;;;5043283;28;20370;-70
2022/08/09 10:24:00;;;;;;;3.35;1.10;;;26.20;92.90;;;;;;5043549;28;20076;-70
2022/08/09 10:26:27;;;;;;;2.58;1.00;;;26.30;93.30;;;;;;5044878;28;20476;-70
2022/08/09 10:28:53;;;;;;;3.83;1.00;;;26.30;93.30;;;;;;5044058;28;20044;-70
2022/08/09 10:31:19;;;;;;;3.13;1.05;;;26.20;93.10;;;;;;5041959;28;20124;-69
2022/08/09 10:33:45;;;;;;;2.38;0.90;;;26.00;92.90;;;;;;5042512;28;20477;-70
2022/08/09 10:36:13;;;;;;;3.03;1.02;;;25.70;93.20;;;;;;5045469;28;20428;-70
2022/08/09 10:38:41;;;;;;;2.38;0.95;;;25.70;93.70;;;;;;5038043;28;20053;-70
2022/08/09 10:41:07;;;;;;;1.65;0.82;;;25.50;93.50;;;;;;5044638;28;20119;-70
2022/08/09 10:43:35;;;;;;;3.38;1.10;;;25.40;94.30;;;;;;5042666;28;20560;-70
2022/08/09 10:46:15;;;;;;;2.58;1.00;;;25.10;94.40;;;;;;5043749;28;20041;-71
2022/08/09 10:48:48;;;;;;;3.33;1.05;;;24.90;94.90;;;;;;5041501;28;20550;-70
2022/08/09 10:51:31;;;;;;;2.72;0.95;;;25.00;95.40;;;;;;5043191;28;20041;-70
2022/08/09 10:54:06;;;;;;;2.10;0.90;;;25.00;94.80;;;;;;5043719;28;20124;-69
2022/08/09 10:56:34;;;;;;;2.47;0.85;;;25.30;94.80;;;;;;5041712;28;20486;-70
2022/08/09 10:59:21;;;;;;;2.00;1.20;;;25.70;94.50;;;;;;5042727;28;20053;-70
2022/08/09 11:01:51;;;;;;;2.75;1.23;;;25.80;94.30;;;;;;5038880;28;20129;-70
2022/08/09 11:04:22;;;;;;;3.00;1.25;;;25.80;94.20;;;;;;5042442;28;20041;-70
2022/08/09 11:06:57;;;;;;;2.35;1.00;;;26.70;94.20;;;;;;5044413;28;20493;-70
2022/08/09 11:09:42;;;;;;;2.63;1.13;;;27.40;94.00;;;;;;5044079;28;20045;-70
2022/08/09 11:12:16;;;;;;;2.75;1.00;;;27.40;93.10;;;;;;5037998;28;20044;-70
2022/08/09 11:14:47;;;;;;;2.80;0.98;;;27.20;93.10;;;;;;5042807;28;20045;-70
2022/08/09 11:17:15;;;;;;;3.45;1.13;;;27.00;93.60;;;;;;5042555;28;20049;-70
2022/08/09 11:19:51;;;;;;;1.35;0.75;;;26.60;93.10;;;;;;5044179;28;20037;-70
2022/08/09 11:22:17;;;;;;;4.22;1.20;;;26.60;93.20;;;;;;5042548;28;20041;-70
2022/08/09 11:25:04;;;;;;;2.03;0.80;;;26.50;93.40;;;;;;5043359;28;20044;-70
2022/08/09 11:27:37;;;;;;;5.78;1.23;;;26.60;94.10;;;;;;5036201;28;20540;-70
2022/08/09 11:30:13;;;;;;;4.22;1.20;;;27.20;94.00;;;;;;5038487;28;20033;-70
2022/08/09 11:32:38;;;;;;;2.38;0.82;;;28.20;93.30;;;;;;5038452;28;20044;-70
2022/08/09 11:35:24;;;;;;;1.65;0.80;;;28.70;92.40;;;;;;5041892;28;20083;-70
2022/08/09 11:37:52;;;;;;;2.65;1.00;;;28.80;92.40;;;;;;5041350;28;20045;-70
2022/08/09 11:40:30;;;;;;;2.67;1.00;;;29.10;91.50;;;;;;5043305;28;20041;-70
2022/08/09 11:42:58;;;;;;;2.75;1.05;;;29.20;90.70;;;;;;5040279;28;20171;-70
2022/08/09 11:45:37;;;;;;;1.50;0.80;;;29.40;91.60;;;;;;5043411;28;20041;-70
2022/08/09 11:48:26;;;;;;;2.30;0.80;;;29.20;90.70;;;;;;5035617;28;20045;-70
2022/08/09 11:51:00;;;;;;;2.30;1.00;;;28.50;91.30;;;;;;5041772;28;20092;-70
2022/08/09 11:53:28;;;;;;;2.25;1.10;;;28.90;91.60;;;;;;5037823;28;20048;-70
2022/08/09 11:56:19;;;;;;;2.05;0.90;;;28.50;91.60;;;;;;5042536;28;20124;-70
2022/08/09 11:58:46;;;;;;;1.23;0.70;;;28.20;90.50;;;;;;5039523;28;20061;-70
2022/08/09 12:01:14;;;;;;;1.40;0.63;;;27.90;91.70;;;;;;5040320;28;20132;-70
2022/08/09 12:03:45;;;;;;;1.92;0.93;;;27.80;91.80;;;;;;5039771;28;20040;-70
2022/08/09 12:06:16;;;;;;;1.95;0.85;;;27.80;91.90;;;;;;5042739;28;20061;-70
2022/08/09 12:08:48;;;;;;;2.58;0.80;;;27.60;91.40;;;;;;5040825;28;20127;-70
2022/08/09 12:11:16;;;;;;;2.90;1.13;;;28.00;92.90;;;;;;5042885;28;20048;-70
2022/08/09 12:13:47;;;;;;;2.38;0.90;;;28.40;92.10;;;;;;5041950;28;20056;-70
2022/08/09 12:16:18;;;;;;;1.33;0.70;;;28.20;91.60;;;;;;5041040;28;20132;-70
2022/08/09 12:18:46;;;;;;;2.42;1.00;;;28.30;91.40;;;;;;5040606;28;20044;-70
2022/08/09 12:21:22;;;;;;;3.83;1.27;;;28.70;91.10;;;;;;5042773;28;20069;-70
2022/08/09 12:23:49;;;;;;;3.72;1.45;;;29.10;91.10;;;;;;5039658;28;20498;-70
2022/08/09 12:26:15;;;;;;;4.13;1.08;;;29.30;90.70;;;;;;5043423;28;20068;-70
2022/08/09 12:28:55;;;;;;;2.83;0.73;;;29.30;90.50;;;;;;5040685;28;20052;-70
2022/08/09 12:31:27;;;;;;;1.58;0.70;;;29.40;90.20;;;;;;5037095;28;20041;-70
2022/08/09 12:33:53;;;;;;;1.02;0.57;;;29.20;90.50;;;;;;5034303;28;20041;-70
2022/08/09 12:36:21;;;;;;;4.60;0.88;;;29.20;90.80;;;;;;5034696;28;20046;-69
2022/08/09 12:38:52;;;;;;;1.58;0.68;;;29.30;90.70;;;;;;5044445;28;20033;-70
2022/08/09 12:41:31;;;;;;;2.15;0.80;;;29.50;90.60;;;;;;5036836;28;20041;-70
2022/08/09 12:43:59;;;;;;;1.65;0.63;;;29.60;90.60;;;;;;5036233;28;20045;-70
2022/08/09 12:46:25;;;;;;;1.90;0.75;;;29.60;90.80;;;;;;5043568;28;20048;-70
2022/08/09 12:48:54;;;;;;;1.40;0.70;;;29.70;89.90;;;;;;5040177;28;20040;-70
2022/08/09 12:51:21;;;;;;;1.83;0.80;;;29.30;89.00;;;;;;5040076;28;20041;-70
2022/08/09 12:53:59;;;;;;;1.88;0.60;;;29.30;90.10;;;;;;5042720;28;20041;-70
2022/08/09 12:56:26;;;;;;;1.48;0.60;;;28.90;89.40;;;;;;5038782;28;20038;-70
2022/08/09 12:59:13;;;;;;;1.40;0.70;;;28.70;90.30;;;;;;5042141;28;20415;-70